createdAt,value
2019-01-17T10:40:13.229Z,23.77
2019-01-17T12:13:38.912Z,41.83
2019-01-17T12:17:02.993Z,42.80
2019-01-17T12:53:40.534Z,81.00
2019-01-17T12:56:12.042Z,60.15
2019-01-17T12:58:43.326Z,49.38
2019-01-17T13:01:14.411Z,27.85
2019-01-17T13:03:45.323Z,18.35
2019-01-17T13:06:16.431Z,26.25
2019-01-17T13:08:47.484Z,23.75
2019-01-17T13:11:18.929Z,57.55
2019-01-17T13:13:50.205Z,52.20
2019-01-17T13:16:21.471Z,42.00
2019-01-17T13:18:52.574Z,56.80
2019-01-17T13:21:23.660Z,80.12
2019-01-17T13:23:54.972Z,97.25
2019-01-17T13:26:26.123Z,123.53
2019-01-17T13:28:57.383Z,111.57
2019-01-17T13:31:30.448Z,125.70
2019-01-17T13:34:03.365Z,194.00
2019-01-17T13:36:40.280Z,131.05
2019-01-17T13:39:11.186Z,76.67
2019-01-17T13:41:44.344Z,79.37
2019-01-17T13:44:17.409Z,126.75
2019-01-17T13:46:51.255Z,89.60
2019-01-17T13:49:24.835Z,61.70
2019-01-17T13:51:58.081Z,59.45
2019-01-17T13:54:32.177Z,60.67
2019-01-17T13:57:07.703Z,61.95
2019-01-17T13:59:42.299Z,63.30
2019-01-17T14:02:18.215Z,51.00
2019-01-17T14:04:52.895Z,43.33
2019-01-17T14:07:26.601Z,83.10
2019-01-17T14:10:01.412Z,63.52
2019-01-17T14:12:34.789Z,55.78
2019-01-17T14:15:28.173Z,55.83
2019-01-17T14:18:02.215Z,56.48
2019-01-17T14:20:35.439Z,53.08
2019-01-17T14:23:10.244Z,66.95
2019-01-17T14:25:43.486Z,81.28
2019-01-17T14:30:48.835Z,129.05
2019-01-17T14:35:55.691Z,136.03
2019-01-17T14:41:00.643Z,126.58
2019-01-17T14:43:34.332Z,123.50
2019-01-17T14:46:08.099Z,120.20
2019-01-17T14:48:43.153Z,135.28
2019-01-17T14:51:16.777Z,125.75
2019-01-17T14:53:51.036Z,126.30
2019-01-17T14:58:58.405Z,109.22
2019-01-17T15:01:31.400Z,148.20
2019-01-17T15:04:04.885Z,142.18
2019-01-17T15:06:38.833Z,129.32
2019-01-17T15:09:11.841Z,123.70
2019-01-17T15:14:32.443Z,108.85
2019-01-17T15:17:07.447Z,106.22
2019-01-17T15:19:43.476Z,96.63
2019-01-17T15:22:17.001Z,88.78
2019-01-17T15:24:50.522Z,81.72
2019-01-17T15:27:27.415Z,98.82
2019-01-17T15:29:59.410Z,76.45
2019-01-17T15:32:33.696Z,66.22
2019-01-17T15:35:07.908Z,71.30
2019-01-17T15:37:41.813Z,52.10
2019-01-17T15:40:18.665Z,71.92
2019-01-17T15:42:52.607Z,111.57
2019-01-17T15:45:25.787Z,165.68
2019-01-17T15:50:31.065Z,212.30
2019-01-17T15:53:04.662Z,181.70
2019-01-17T15:55:38.657Z,167.18
2019-01-17T15:58:11.327Z,155.37
2019-01-17T16:00:45.511Z,177.95
2019-01-17T16:03:18.600Z,152.65
2019-01-17T16:05:51.899Z,144.15
2019-01-17T16:10:56.940Z,616.00
2019-01-17T16:13:30.281Z,175.95
2019-01-17T16:16:07.862Z,202.25
2019-01-17T16:18:41.322Z,211.97
2019-01-17T16:21:16.683Z,216.65
2019-01-17T16:23:50.110Z,182.88
2019-01-17T16:26:23.504Z,231.85
2019-01-17T16:28:57.194Z,292.32
2019-01-17T16:31:29.891Z,220.37
2019-01-17T16:34:03.802Z,279.40
2019-01-17T16:36:37.566Z,294.75
2019-01-17T16:39:10.913Z,273.77
2019-01-17T16:41:44.650Z,243.20
2019-01-17T16:44:18.182Z,256.45
2019-01-17T16:46:51.568Z,195.07
2019-01-17T16:49:25.131Z,199.55
2019-01-17T16:51:58.279Z,230.80
2019-01-17T16:57:04.003Z,192.50
2019-01-17T17:02:09.901Z,178.62
2019-01-17T17:04:43.695Z,104.92
2019-01-17T17:07:18.056Z,98.67
2019-01-17T17:09:52.601Z,88.37
2019-01-17T17:12:26.281Z,74.97
2019-01-17T17:15:10.031Z,56.05
2019-01-17T17:17:45.953Z,75.80
2019-01-17T17:20:22.412Z,68.80
2019-01-17T17:22:55.724Z,61.63
2019-01-17T17:25:30.271Z,73.52
2019-01-17T17:28:03.707Z,76.07
2019-01-17T17:30:37.167Z,55.08
2019-01-17T17:33:09.859Z,86.42
2019-01-17T17:35:43.679Z,79.97
2019-01-17T17:38:17.251Z,62.05
2019-01-17T17:40:51.181Z,69.22
2019-01-17T17:43:24.523Z,98.33
2019-01-17T17:45:58.628Z,103.05
2019-01-17T17:48:33.407Z,104.05
2019-01-17T17:51:07.853Z,116.95
2019-01-17T17:53:41.135Z,133.20
2019-01-17T17:56:16.917Z,125.85
2019-01-17T17:58:50.332Z,107.37
2019-01-17T18:01:47.937Z,110.03
2019-01-17T18:04:22.530Z,151.10
2019-01-17T18:06:56.056Z,169.07
2019-01-17T18:09:30.167Z,95.25
2019-01-17T18:12:03.399Z,82.75
2019-01-17T18:14:49.962Z,63.98
2019-01-17T18:17:36.270Z,51.95
2019-01-17T18:20:20.649Z,60.60
2019-01-17T18:22:59.128Z,39.73
2019-01-17T18:25:32.486Z,28.32
2019-01-17T18:28:08.825Z,33.50
2019-01-17T18:30:41.744Z,44.10
2019-01-17T18:33:16.182Z,62.70
2019-01-17T18:35:50.137Z,122.92
2019-01-17T18:38:23.538Z,133.57
2019-01-17T18:40:57.292Z,110.10
2019-01-17T18:43:32.422Z,104.60
2019-01-17T18:46:06.094Z,115.85
2019-01-17T18:48:40.496Z,138.92
2019-01-17T18:51:15.702Z,117.05
2019-01-17T18:53:49.115Z,130.70
2019-01-17T18:56:22.180Z,131.72
2019-01-17T19:01:31.892Z,116.08
2019-01-17T19:04:05.200Z,111.05
2019-01-17T19:06:39.058Z,118.97
2019-01-17T19:09:14.649Z,114.67
2019-01-17T19:11:48.071Z,99.28
2019-01-17T19:14:28.109Z,32.88
2019-01-17T19:17:02.449Z,30.12
2019-01-17T19:19:36.101Z,44.95
2019-01-17T19:22:09.391Z,59.73
2019-01-17T19:24:42.961Z,73.75
2019-01-17T19:27:16.261Z,66.35
2019-01-17T19:29:51.162Z,59.38
2019-01-17T19:32:24.386Z,77.58
2019-01-17T19:37:32.994Z,120.95
2019-01-17T19:40:07.264Z,111.68
2019-01-17T19:42:41.165Z,106.47
2019-01-17T19:45:15.424Z,73.35
2019-01-17T19:47:48.864Z,50.33
2019-01-17T19:50:32.847Z,38.00
2019-01-17T19:53:06.159Z,52.08
2019-01-17T19:55:39.747Z,56.08
2019-01-17T19:58:13.228Z,54.18
2019-01-17T20:00:46.879Z,58.15
2019-01-17T20:03:20.295Z,53.42
2019-01-17T20:05:53.821Z,54.60
2019-01-17T20:08:27.443Z,48.48
2019-01-17T20:11:00.923Z,57.10
2019-01-17T20:13:35.320Z,55.43
2019-01-17T20:16:09.621Z,55.55
2019-01-17T20:18:43.504Z,62.75
2019-01-17T20:21:18.024Z,71.47
2019-01-17T20:23:51.288Z,103.20
2019-01-17T20:26:24.628Z,109.50
2019-01-17T20:28:58.739Z,80.22
2019-01-17T20:31:32.597Z,85.95
2019-01-17T20:34:05.349Z,69.97
2019-01-17T20:36:38.437Z,53.42
2019-01-17T20:39:11.665Z,59.05
2019-01-17T20:44:17.737Z,56.18
2019-01-17T20:46:51.015Z,67.40
2019-01-17T20:49:24.373Z,84.00
2019-01-17T20:51:58.697Z,75.03
2019-01-17T20:54:31.938Z,89.07
2019-01-17T20:57:07.091Z,86.67
2019-01-17T20:59:40.652Z,85.62
2019-01-17T21:02:21.951Z,90.17
2019-01-17T21:04:55.810Z,75.28
2019-01-17T21:07:29.557Z,87.42
2019-01-17T21:10:03.339Z,91.78
2019-01-17T21:12:36.666Z,120.05
2019-01-17T21:15:14.526Z,95.30
2019-01-17T21:17:48.100Z,91.17
2019-01-17T21:20:21.695Z,92.95
2019-01-17T21:22:54.905Z,134.10
2019-01-17T21:25:28.170Z,114.25
2019-01-17T21:28:01.267Z,88.07
2019-01-17T21:33:07.971Z,71.92
2019-01-17T21:35:41.438Z,62.62
2019-01-17T21:38:14.707Z,57.20
2019-01-17T21:40:48.209Z,46.58
2019-01-17T21:43:21.535Z,48.30
2019-01-17T21:45:55.167Z,54.50
2019-01-17T21:48:28.935Z,71.33
2019-01-17T21:51:01.753Z,70.55
2019-01-17T21:53:34.973Z,73.30
2019-01-17T21:56:08.203Z,65.35
2019-01-17T21:58:41.425Z,63.73
2019-01-17T22:01:14.860Z,93.35
2019-01-17T22:03:48.303Z,87.75
2019-01-17T22:06:20.782Z,82.08
2019-01-17T22:08:53.308Z,83.00
2019-01-17T22:11:26.427Z,78.67
2019-01-17T22:16:46.564Z,62.73
2019-01-17T22:19:29.588Z,54.18
2019-01-17T22:22:07.814Z,59.35
2019-01-17T22:24:43.012Z,62.80
2019-01-17T22:27:16.244Z,73.65
2019-01-17T22:29:49.239Z,69.40
2019-01-17T22:34:54.834Z,70.92
2019-01-17T22:37:28.075Z,59.13
2019-01-17T22:40:00.836Z,55.45
2019-01-17T22:42:35.104Z,44.08
2019-01-17T22:45:10.664Z,51.70
2019-01-17T22:47:43.996Z,51.90
2019-01-17T22:50:17.709Z,55.10
2019-01-17T22:52:50.939Z,59.13
2019-01-17T22:55:24.786Z,62.25
2019-01-17T22:57:58.031Z,49.40
2019-01-17T23:00:55.649Z,56.77
2019-01-17T23:03:31.958Z,52.48
2019-01-17T23:06:05.252Z,42.48
2019-01-17T23:08:37.768Z,33.80
2019-01-17T23:11:10.734Z,21.27
2019-01-17T23:13:43.568Z,16.35
2019-01-17T23:16:21.062Z,18.05
2019-01-17T23:18:54.406Z,18.02
2019-01-17T23:21:27.410Z,23.38
2019-01-17T23:26:32.606Z,30.10
2019-01-17T23:29:05.864Z,26.68
2019-01-17T23:31:38.488Z,26.30
2019-01-17T23:34:11.829Z,34.27
2019-01-17T23:36:48.745Z,30.32
2019-01-17T23:39:19.624Z,32.73
2019-01-17T23:44:25.617Z,29.55
2019-01-17T23:46:58.706Z,30.90
2019-01-17T23:49:31.960Z,27.35
2019-01-17T23:52:05.215Z,25.23
2019-01-17T23:54:38.160Z,24.05
2019-01-17T23:59:44.005Z,19.30
